sensor_id;sensor_type;location;lat;lon;timestamp;pressure;altitude;pressure_sealevel;temperature;humidity
28448;BME280;15675;52.870;-1.416;2023-05-08T00:01:14;101331.78;;;15.46;100.00
28448;BME280;15675;52.870;-1.416;2023-05-08T00:03:41;101333.69;;;15.24;100.00
28448;BME280;15675;52.870;-1.416;2023-05-08T00:06:07;101326.00;;;14.93;100.00
28448;BME280;15675;52.870;-1.416;2023-05-08T00:08:33;101328.72;;;14.71;100.00
28448;BME280;15675;52.870;-1.416;2023-05-08T00:10:59;101336.56;;;14.46;100.00
28448;BME280;15675;52.870;-1.416;2023-05-08T00:13:25;101326.13;;;14.66;100.00
28448;BME280;15675;52.870;-1.416;2023-05-08T00:15:50;101319.16;;;14.53;100.00
28448;BME280;15675;52.870;-1.416;2023-05-08T00:18:16;101325.25;;;14.55;100.00
28448;BME280;15675;52.870;-1.416;2023-05-08T00:20:42;101322.63;;;14.66;100.00
28448;BME280;15675;52.870;-1.416;2023-05-08T00:23:08;101325.16;;;14.86;100.00
28448;BME280;15675;52.870;-1.416;2023-05-08T00:25:34;101320.63;;;15.19;100.00
28448;BME280;15675;52.870;-1.416;2023-05-08T00:28:00;101330.16;;;15.31;100.00
28448;BME280;15675;52.870;-1.416;2023-05-08T00:30:26;101323.97;;;15.41;100.00
28448;BME280;15675;52.870;-1.416;2023-05-08T00:32:52;101321.19;;;15.64;100.00
28448;BME280;15675;52.870;-1.416;2023-05-08T00:35:18;101323.78;;;15.66;100.00
28448;BME280;15675;52.870;-1.416;2023-05-08T00:37:44;101328.19;;;15.62;100.00
28448;BME280;15675;52.870;-1.416;2023-05-08T00:40:10;101329.97;;;15.56;100.00
28448;BME280;15675;52.870;-1.416;2023-05-08T00:42:37;101327.25;;;15.69;100.00
28448;BME280;15675;52.870;-1.416;2023-05-08T00:45:03;101321.44;;;15.33;100.00
28448;BME280;15675;52.870;-1.416;2023-05-08T00:47:30;101317.13;;;15.22;100.00
28448;BME280;15675;52.870;-1.416;2023-05-08T00:49:57;101324.94;;;15.28;100.00
28448;BME280;15675;52.870;-1.416;2023-05-08T00:52:25;101320.31;;;15.67;100.00
28448;BME280;15675;52.870;-1.416;2023-05-08T00:54:52;101325.44;;;15.82;100.00
28448;BME280;15675;52.870;-1.416;2023-05-08T00:57:20;101319.94;;;14.84;100.00
28448;BME280;15675;52.870;-1.416;2023-05-08T00:59:48;101309.59;;;14.49;100.00
28448;BME280;15675;52.870;-1.416;2023-05-08T01:02:15;101319.22;;;14.21;100.00
28448;BME280;15675;52.870;-1.416;2023-05-08T01:04:41;101322.69;;;14.38;100.00
28448;BME280;15675;52.870;-1.416;2023-05-08T01:07:10;101321.66;;;14.87;100.00
28448;BME280;15675;52.870;-1.416;2023-05-08T01:09:36;101322.59;;;14.71;100.00
28448;BME280;15675;52.870;-1.416;2023-05-08T01:12:14;101321.84;;;14.25;100.00
28448;BME280;15675;52.870;-1.416;2023-05-08T01:14:59;101318.38;;;14.02;100.00
28448;BME280;15675;52.870;-1.416;2023-05-08T01:17:49;101327.09;;;13.57;100.00
28448;BME280;15675;52.870;-1.416;2023-05-08T01:20:45;101327.09;;;13.82;100.00
28448;BME280;15675;52.870;-1.416;2023-05-08T01:23:43;101312.31;;;14.03;100.00
28448;BME280;15675;52.870;-1.416;2023-05-08T01:26:36;101313.16;;;14.09;100.00
28448;BME280;15675;52.870;-1.416;2023-05-08T01:29:32;101312.25;;;14.38;100.00
28448;BME280;15675;52.870;-1.416;2023-05-08T01:32:22;101310.44;;;14.62;100.00
28448;BME280;15675;52.870;-1.416;2023-05-08T01:35:13;101307.81;;;14.60;100.00
28448;BME280;15675;52.870;-1.416;2023-05-08T01:37:56;101303.56;;;14.18;100.00
28448;BME280;15675;52.870;-1.416;2023-05-08T01:40:33;101300.91;;;14.45;100.00
28448;BME280;15675;52.870;-1.416;2023-05-08T01:45:53;101301.88;;;13.95;100.00
28448;BME280;15675;52.870;-1.416;2023-05-08T01:48:27;101303.56;;;14.24;100.00
28448;BME280;15675;52.870;-1.416;2023-05-08T01:51:01;101296.56;;;14.43;100.00
28448;BME280;15675;52.870;-1.416;2023-05-08T01:53:35;101301.00;;;13.80;100.00
28448;BME280;15675;52.870;-1.416;2023-05-08T01:56:08;101298.38;;;13.39;100.00
28448;BME280;15675;52.870;-1.416;2023-05-08T01:58:36;101295.75;;;13.34;100.00
28448;BME280;15675;52.870;-1.416;2023-05-08T02:01:04;101303.56;;;13.31;100.00
28448;BME280;15675;52.870;-1.416;2023-05-08T02:03:32;101291.44;;;13.50;100.00
28448;BME280;15675;52.870;-1.416;2023-05-08T02:06:00;101293.19;;;13.42;100.00
28448;BME280;15675;52.870;-1.416;2023-05-08T02:08:28;101291.44;;;13.49;100.00
28448;BME280;15675;52.870;-1.416;2023-05-08T02:10:55;101294.06;;;13.56;100.00
28448;BME280;15675;52.870;-1.416;2023-05-08T02:13:23;101287.94;;;13.84;100.00
28448;BME280;15675;52.870;-1.416;2023-05-08T02:15:53;101284.47;;;13.88;100.00
28448;BME280;15675;52.870;-1.416;2023-05-08T02:18:22;101276.69;;;13.77;100.00
28448;BME280;15675;52.870;-1.416;2023-05-08T02:20:51;101280.13;;;13.46;100.00
28448;BME280;15675;52.870;-1.416;2023-05-08T02:23:18;101283.59;;;13.61;100.00
28448;BME280;15675;52.870;-1.416;2023-05-08T02:25:46;101277.53;;;13.80;100.00
28448;BME280;15675;52.870;-1.416;2023-05-08T02:28:14;101274.91;;;13.97;100.00
28448;BME280;15675;52.870;-1.416;2023-05-08T02:30:41;101279.28;;;13.80;100.00
28448;BME280;15675;52.870;-1.416;2023-05-08T02:33:10;101273.19;;;13.72;100.00
28448;BME280;15675;52.870;-1.416;2023-05-08T02:35:37;101267.09;;;13.76;100.00
28448;BME280;15675;52.870;-1.416;2023-05-08T02:38:06;101264.44;;;14.04;100.00
28448;BME280;15675;52.870;-1.416;2023-05-08T02:40:37;101270.59;;;13.83;100.00
28448;BME280;15675;52.870;-1.416;2023-05-08T02:43:04;101265.34;;;13.76;100.00
28448;BME280;15675;52.870;-1.416;2023-05-08T02:45:38;101270.56;;;13.36;100.00
28448;BME280;15675;52.870;-1.416;2023-05-08T02:48:13;101267.09;;;13.37;100.00
28448;BME280;15675;52.870;-1.416;2023-05-08T02:50:56;101268.78;;;13.29;100.00
28448;BME280;15675;52.870;-1.416;2023-05-08T02:53:29;101269.66;;;13.25;100.00
28448;BME280;15675;52.870;-1.416;2023-05-08T02:55:59;101268.84;;;13.44;100.00
28448;BME280;15675;52.870;-1.416;2023-05-08T02:58:33;101268.84;;;13.38;100.00
28448;BME280;15675;52.870;-1.416;2023-05-08T03:01:06;101266.19;;;13.34;100.00
28448;BME280;15675;52.870;-1.416;2023-05-08T03:03:39;101256.66;;;13.59;100.00
28448;BME280;15675;52.870;-1.416;2023-05-08T03:06:12;101258.41;;;13.78;100.00
28448;BME280;15675;52.870;-1.416;2023-05-08T03:08:39;101252.31;;;13.87;100.00
28448;BME280;15675;52.870;-1.416;2023-05-08T03:11:08;101254.03;;;13.84;100.00
28448;BME280;15675;52.870;-1.416;2023-05-08T03:13:38;101250.56;;;13.81;100.00
28448;BME280;15675;52.870;-1.416;2023-05-08T03:16:09;101243.56;;;14.08;100.00
28448;BME280;15675;52.870;-1.416;2023-05-08T03:18:44;101238.25;;;14.33;100.00
28448;BME280;15675;52.870;-1.416;2023-05-08T03:21:12;101246.06;;;14.38;100.00
28448;BME280;15675;52.870;-1.416;2023-05-08T03:23:43;101240.09;;;14.03;100.00
28448;BME280;15675;52.870;-1.416;2023-05-08T03:26:17;101242.78;;;13.57;100.00
28448;BME280;15675;52.870;-1.416;2023-05-08T03:28:47;101235.81;;;13.42;100.00
28448;BME280;15675;52.870;-1.416;2023-05-08T03:31:17;101240.97;;;13.00;100.00
28448;BME280;15675;52.870;-1.416;2023-05-08T03:33:46;101239.28;;;13.36;100.00
28448;BME280;15675;52.870;-1.416;2023-05-08T03:36:13;101239.22;;;12.99;100.00
28448;BME280;15675;52.870;-1.416;2023-05-08T03:38:40;101240.09;;;13.03;100.00
28448;BME280;15675;52.870;-1.416;2023-05-08T03:41:07;101230.50;;;12.83;100.00
28448;BME280;15675;52.870;-1.416;2023-05-08T03:43:35;101234.84;;;12.93;100.00
28448;BME280;15675;52.870;-1.416;2023-05-08T03:46:03;101237.44;;;12.83;100.00
28448;BME280;15675;52.870;-1.416;2023-05-08T03:48:31;101238.34;;;12.94;100.00
28448;BME280;15675;52.870;-1.416;2023-05-08T03:51:01;101239.25;;;13.32;100.00
28448;BME280;15675;52.870;-1.416;2023-05-08T03:53:29;101234.06;;;13.35;100.00
28448;BME280;15675;52.870;-1.416;2023-05-08T03:55:56;101221.91;;;13.38;100.00
28448;BME280;15675;52.870;-1.416;2023-05-08T03:58:33;101228.81;;;13.22;100.00
28448;BME280;15675;52.870;-1.416;2023-05-08T04:01:27;101219.31;;;13.38;100.00
28448;BME280;15675;52.870;-1.416;2023-05-08T04:04:17;101218.34;;;14.06;100.00
28448;BME280;15675;52.870;-1.416;2023-05-08T04:06:50;101218.25;;;14.29;100.00
28448;BME280;15675;52.870;-1.416;2023-05-08T04:09:42;101220.72;;;14.74;100.00
28448;BME280;15675;52.870;-1.416;2023-05-08T04:12:20;101224.00;;;14.99;100.00
28448;BME280;15675;52.870;-1.416;2023-05-08T04:14:51;101220.31;;;15.31;100.00
28448;BME280;15675;52.870;-1.416;2023-05-08T04:17:26;101217.72;;;15.29;100.00
28448;BME280;15675;52.870;-1.416;2023-05-08T04:19:59;101223.88;;;15.24;100.00
28448;BME280;15675;52.870;-1.416;2023-05-08T04:22:26;101215.06;;;15.34;100.00
28448;BME280;15675;52.870;-1.416;2023-05-08T04:24:57;101229.00;;;15.33;100.00
28448;BME280;15675;52.870;-1.416;2023-05-08T04:27:24;101222.28;;;15.02;100.00
28448;BME280;15675;52.870;-1.416;2023-05-08T04:29:50;101223.88;;;15.17;100.00
28448;BME280;15675;52.870;-1.416;2023-05-08T04:32:16;101228.16;;;15.31;100.00
28448;BME280;15675;52.870;-1.416;2023-05-08T04:34:42;101217.88;;;15.06;100.00
28448;BME280;15675;52.870;-1.416;2023-05-08T04:37:08;101218.53;;;15.39;100.00
28448;BME280;15675;52.870;-1.416;2023-05-08T04:39:49;101218.00;;;14.88;99.96
28448;BME280;15675;52.870;-1.416;2023-05-08T04:42:15;101220.31;;;15.32;100.00
28448;BME280;15675;52.870;-1.416;2023-05-08T04:44:41;101213.19;;;15.48;99.97
28448;BME280;15675;52.870;-1.416;2023-05-08T04:47:07;101210.47;;;15.61;98.02
28448;BME280;15675;52.870;-1.416;2023-05-08T04:49:33;101219.97;;;15.69;95.96
28448;BME280;15675;52.870;-1.416;2023-05-08T04:51:58;101217.19;;;15.90;95.27
28448;BME280;15675;52.870;-1.416;2023-05-08T04:54:24;101218.78;;;16.03;94.08
28448;BME280;15675;52.870;-1.416;2023-05-08T04:56:50;101216.03;;;16.15;92.84
28448;BME280;15675;52.870;-1.416;2023-05-08T04:59:16;101216.22;;;15.98;91.50
28448;BME280;15675;52.870;-1.416;2023-05-08T05:01:42;101205.94;;;15.81;91.42
28448;BME280;15675;52.870;-1.416;2023-05-08T05:04:08;101204.69;;;15.20;93.53
28448;BME280;15675;52.870;-1.416;2023-05-08T05:06:34;101212.38;;;15.40;95.42
28448;BME280;15675;52.870;-1.416;2023-05-08T05:08:59;101209.88;;;15.29;96.10
28448;BME280;15675;52.870;-1.416;2023-05-08T05:11:25;101222.16;;;15.19;95.58
28448;BME280;15675;52.870;-1.416;2023-05-08T05:13:51;101208.09;;;15.33;96.55
28448;BME280;15675;52.870;-1.416;2023-05-08T05:16:17;101210.50;;;15.58;96.56
28448;BME280;15675;52.870;-1.416;2023-05-08T05:18:43;101213.78;;;15.81;95.75
28448;BME280;15675;52.870;-1.416;2023-05-08T05:21:08;101211.09;;;15.91;93.27
28448;BME280;15675;52.870;-1.416;2023-05-08T05:23:36;101213.88;;;15.66;92.39
28448;BME280;15675;52.870;-1.416;2023-05-08T05:26:02;101214.41;;;15.06;94.59
28448;BME280;15675;52.870;-1.416;2023-05-08T05:28:27;101213.69;;;14.79;98.44
28448;BME280;15675;52.870;-1.416;2023-05-08T05:30:53;101215.56;;;14.49;100.00
28448;BME280;15675;52.870;-1.416;2023-05-08T05:33:19;101213.91;;;14.32;100.00
28448;BME280;15675;52.870;-1.416;2023-05-08T05:35:45;101210.53;;;14.03;100.00
28448;BME280;15675;52.870;-1.416;2023-05-08T05:38:11;101214.78;;;14.22;100.00
28448;BME280;15675;52.870;-1.416;2023-05-08T05:40:37;101215.53;;;14.64;100.00
28448;BME280;15675;52.870;-1.416;2023-05-08T05:43:03;101219.59;;;15.09;100.00
28448;BME280;15675;52.870;-1.416;2023-05-08T05:45:28;101212.50;;;15.26;100.00
28448;BME280;15675;52.870;-1.416;2023-05-08T05:47:54;101220.75;;;14.58;100.00
28448;BME280;15675;52.870;-1.416;2023-05-08T05:50:20;101213.88;;;14.37;100.00
28448;BME280;15675;52.870;-1.416;2023-05-08T05:52:47;101213.97;;;14.05;100.00
28448;BME280;15675;52.870;-1.416;2023-05-08T05:55:13;101213.19;;;13.81;100.00
28448;BME280;15675;52.870;-1.416;2023-05-08T05:57:39;101209.63;;;14.11;100.00
28448;BME280;15675;52.870;-1.416;2023-05-08T06:00:05;101214.84;;;14.10;100.00
28448;BME280;15675;52.870;-1.416;2023-05-08T06:02:32;101213.19;;;13.83;100.00
28448;BME280;15675;52.870;-1.416;2023-05-08T06:04:59;101221.84;;;13.91;100.00
28448;BME280;15675;52.870;-1.416;2023-05-08T06:07:25;101219.28;;;13.78;100.00
28448;BME280;15675;52.870;-1.416;2023-05-08T06:09:51;101211.44;;;13.69;100.00
28448;BME280;15675;52.870;-1.416;2023-05-08T06:12:18;101209.75;;;13.53;100.00
28448;BME280;15675;52.870;-1.416;2023-05-08T06:14:43;101214.06;;;13.64;100.00
28448;BME280;15675;52.870;-1.416;2023-05-08T06:17:09;101205.34;;;13.89;100.00
28448;BME280;15675;52.870;-1.416;2023-05-08T06:19:35;101210.53;;;13.92;100.00
28448;BME280;15675;52.870;-1.416;2023-05-08T06:22:01;101204.41;;;14.02;100.00
28448;BME280;15675;52.870;-1.416;2023-05-08T06:24:27;101205.28;;;14.09;100.00
28448;BME280;15675;52.870;-1.416;2023-05-08T06:26:53;101202.50;;;14.47;100.00
28448;BME280;15675;52.870;-1.416;2023-05-08T06:29:19;101207.69;;;14.58;100.00
28448;BME280;15675;52.870;-1.416;2023-05-08T06:31:46;101206.91;;;14.38;100.00
28448;BME280;15675;52.870;-1.416;2023-05-08T06:34:12;101201.69;;;14.36;100.00
28448;BME280;15675;52.870;-1.416;2023-05-08T06:36:38;101205.19;;;14.32;100.00
28448;BME280;15675;52.870;-1.416;2023-05-08T06:39:04;101199.13;;;14.30;100.00
28448;BME280;15675;52.870;-1.416;2023-05-08T06:41:31;101196.59;;;14.07;100.00
28448;BME280;15675;52.870;-1.416;2023-05-08T06:43:56;101196.44;;;14.39;100.00
28448;BME280;15675;52.870;-1.416;2023-05-08T06:46:22;101199.13;;;14.25;100.00
28448;BME280;15675;52.870;-1.416;2023-05-08T06:48:48;101200.00;;;14.24;100.00
28448;BME280;15675;52.870;-1.416;2023-05-08T06:51:14;101200.78;;;14.42;100.00
28448;BME280;15675;52.870;-1.416;2023-05-08T06:53:40;101197.44;;;14.17;100.00
28448;BME280;15675;52.870;-1.416;2023-05-08T06:56:06;101197.44;;;14.12;100.00
28448;BME280;15675;52.870;-1.416;2023-05-08T06:58:32;101205.19;;;14.35;100.00
28448;BME280;15675;52.870;-1.416;2023-05-08T07:01:00;101208.56;;;14.66;100.00
28448;BME280;15675;52.870;-1.416;2023-05-08T07:03:27;101206.09;;;14.23;100.00
28448;BME280;15675;52.870;-1.416;2023-05-08T07:05:53;101217.31;;;14.47;100.00
28448;BME280;15675;52.870;-1.416;2023-05-08T07:08:18;101219.13;;;14.31;100.00
28448;BME280;15675;52.870;-1.416;2023-05-08T07:10:44;101212.97;;;14.44;100.00
28448;BME280;15675;52.870;-1.416;2023-05-08T07:13:10;101212.88;;;14.74;100.00
28448;BME280;15675;52.870;-1.416;2023-05-08T07:15:36;101205.97;;;14.56;100.00
28448;BME280;15675;52.870;-1.416;2023-05-08T07:18:03;101215.72;;;14.17;100.00
28448;BME280;15675;52.870;-1.416;2023-05-08T07:20:29;101217.34;;;14.42;100.00
28448;BME280;15675;52.870;-1.416;2023-05-08T07:22:55;101217.34;;;14.44;100.00
28448;BME280;15675;52.870;-1.416;2023-05-08T07:25:21;101211.31;;;14.22;100.00
28448;BME280;15675;52.870;-1.416;2023-05-08T07:27:47;101210.50;;;14.17;100.00
28448;BME280;15675;52.870;-1.416;2023-05-08T07:30:13;101214.69;;;14.48;100.00
28448;BME280;15675;52.870;-1.416;2023-05-08T07:32:39;101212.91;;;14.58;100.00
28448;BME280;15675;52.870;-1.416;2023-05-08T07:35:06;101212.13;;;14.42;100.00
28448;BME280;15675;52.870;-1.416;2023-05-08T07:37:34;101207.69;;;14.60;100.00
28448;BME280;15675;52.870;-1.416;2023-05-08T07:40:00;101220.72;;;14.67;100.00
28448;BME280;15675;52.870;-1.416;2023-05-08T07:42:26;101213.53;;;15.05;100.00
28448;BME280;15675;52.870;-1.416;2023-05-08T07:44:51;101214.63;;;14.67;100.00
28448;BME280;15675;52.870;-1.416;2023-05-08T07:47:17;101206.81;;;14.67;100.00
28448;BME280;15675;52.870;-1.416;2023-05-08T07:49:43;101216.41;;;14.57;100.00
28448;BME280;15675;52.870;-1.416;2023-05-08T07:52:09;101217.31;;;14.50;100.00
28448;BME280;15675;52.870;-1.416;2023-05-08T07:54:35;101214.69;;;14.52;100.00
28448;BME280;15675;52.870;-1.416;2023-05-08T07:57:01;101217.22;;;14.73;100.00
28448;BME280;15675;52.870;-1.416;2023-05-08T07:59:26;101209.31;;;14.84;100.00
28448;BME280;15675;52.870;-1.416;2023-05-08T08:01:52;101197.44;;;14.17;100.00
28448;BME280;15675;52.870;-1.416;2023-05-08T08:04:18;101195.69;;;14.08;100.00
28448;BME280;15675;52.870;-1.416;2023-05-08T08:06:44;101206.25;;;13.74;100.00
28448;BME280;15675;52.870;-1.416;2023-05-08T08:09:10;101207.78;;;14.38;100.00
28448;BME280;15675;52.870;-1.416;2023-05-08T08:11:36;101209.53;;;14.33;100.00
28448;BME280;15675;52.870;-1.416;2023-05-08T08:14:02;101215.69;;;14.21;100.00
28448;BME280;15675;52.870;-1.416;2023-05-08T08:16:27;101213.84;;;14.42;100.00
28448;BME280;15675;52.870;-1.416;2023-05-08T08:18:53;101211.25;;;14.40;100.00
28448;BME280;15675;52.870;-1.416;2023-05-08T08:21:19;101209.59;;;14.19;100.00
28448;BME280;15675;52.870;-1.416;2023-05-08T08:23:45;101209.50;;;14.42;100.00
28448;BME280;15675;52.870;-1.416;2023-05-08T08:26:11;101211.97;;;14.78;100.00
28448;BME280;15675;52.870;-1.416;2023-05-08T08:28:37;101213.91;;;14.32;100.00
28448;BME280;15675;52.870;-1.416;2023-05-08T08:31:02;101207.72;;;14.50;100.00
28448;BME280;15675;52.870;-1.416;2023-05-08T08:33:28;101215.41;;;14.83;100.00
28448;BME280;15675;52.870;-1.416;2023-05-08T08:35:54;101205.19;;;14.35;100.00
28448;BME280;15675;52.870;-1.416;2023-05-08T08:38:20;101208.66;;;14.34;100.00
28448;BME280;15675;52.870;-1.416;2023-05-08T08:40:46;101215.66;;;14.27;100.00
28448;BME280;15675;52.870;-1.416;2023-05-08T08:43:12;101214.75;;;14.36;100.00
28448;BME280;15675;52.870;-1.416;2023-05-08T08:45:38;101207.81;;;14.35;100.00
28448;BME280;15675;52.870;-1.416;2023-05-08T08:48:09;101201.81;;;14.05;100.00
28448;BME280;15675;52.870;-1.416;2023-05-08T08:50:41;101201.00;;;13.85;100.00
28448;BME280;15675;52.870;-1.416;2023-05-08T08:53:25;101200.03;;;14.15;100.00
28448;BME280;15675;52.870;-1.416;2023-05-08T08:55:56;101198.31;;;14.15;100.00
28448;BME280;15675;52.870;-1.416;2023-05-08T08:58:35;101190.47;;;14.09;100.00
28448;BME280;15675;52.870;-1.416;2023-05-08T09:01:03;101201.72;;;14.22;100.00
28448;BME280;15675;52.870;-1.416;2023-05-08T09:03:30;101207.78;;;14.33;100.00
28448;BME280;15675;52.870;-1.416;2023-05-08T09:06:00;101207.69;;;14.60;100.00
28448;BME280;15675;52.870;-1.416;2023-05-08T09:08:27;101200.88;;;14.22;100.00
28448;BME280;15675;52.870;-1.416;2023-05-08T09:10:54;101191.41;;;13.90;100.00
28448;BME280;15675;52.870;-1.416;2023-05-08T09:13:21;101190.59;;;13.75;100.00
28448;BME280;15675;52.870;-1.416;2023-05-08T09:15:47;101186.25;;;13.68;100.00
28448;BME280;15675;52.870;-1.416;2023-05-08T09:18:15;101188.75;;;14.07;100.00
28448;BME280;15675;52.870;-1.416;2023-05-08T09:20:42;101181.81;;;14.06;100.00
28448;BME280;15675;52.870;-1.416;2023-05-08T09:23:09;101175.56;;;14.36;100.00
28448;BME280;15675;52.870;-1.416;2023-05-08T09:25:44;101183.53;;;14.02;100.00
28448;BME280;15675;52.870;-1.416;2023-05-08T09:28:20;101173.94;;;14.17;100.00
28448;BME280;15675;52.870;-1.416;2023-05-08T09:31:03;101185.13;;;14.42;100.00
28448;BME280;15675;52.870;-1.416;2023-05-08T09:33:29;101182.44;;;14.63;100.00
28448;BME280;15675;52.870;-1.416;2023-05-08T09:35:55;101175.59;;;14.35;100.00
28448;BME280;15675;52.870;-1.416;2023-05-08T09:38:36;101170.19;;;14.73;100.00
28448;BME280;15675;52.870;-1.416;2023-05-08T09:41:06;101169.44;;;14.48;100.00
28448;BME280;15675;52.870;-1.416;2023-05-08T09:43:33;101159.09;;;14.31;100.00
28448;BME280;15675;52.870;-1.416;2023-05-08T09:46:20;101160.94;;;13.95;100.00
28448;BME280;15675;52.870;-1.416;2023-05-08T09:48:47;101157.53;;;13.77;100.00
28448;BME280;15675;52.870;-1.416;2023-05-08T09:51:13;101146.22;;;13.83;100.00
28448;BME280;15675;52.870;-1.416;2023-05-08T09:53:39;101153.13;;;13.93;100.00
28448;BME280;15675;52.870;-1.416;2023-05-08T09:56:05;101151.22;;;14.36;100.00
28448;BME280;15675;52.870;-1.416;2023-05-08T09:58:40;101151.13;;;14.46;100.00
28448;BME280;15675;52.870;-1.416;2023-05-08T10:01:07;101141.59;;;14.45;100.00
28448;BME280;15675;52.870;-1.416;2023-05-08T10:03:49;101141.59;;;14.39;100.00
28448;BME280;15675;52.870;-1.416;2023-05-08T10:06:15;101142.41;;;14.57;100.00
28448;BME280;15675;52.870;-1.416;2023-05-08T10:08:41;101137.16;;;14.58;100.00
28448;BME280;15675;52.870;-1.416;2023-05-08T10:11:15;101138.22;;;14.20;100.00
28448;BME280;15675;52.870;-1.416;2023-05-08T10:13:44;101138.09;;;14.48;100.00
28448;BME280;15675;52.870;-1.416;2023-05-08T10:16:13;101142.38;;;14.61;100.00
28448;BME280;15675;52.870;-1.416;2023-05-08T10:18:46;101149.22;;;14.82;100.00
28448;BME280;15675;52.870;-1.416;2023-05-08T10:21:13;101137.72;;;15.02;100.00
28448;BME280;15675;52.870;-1.416;2023-05-08T10:23:41;101141.28;;;14.98;100.00
28448;BME280;15675;52.870;-1.416;2023-05-08T10:26:12;101144.06;;;14.70;100.00
28448;BME280;15675;52.870;-1.416;2023-05-08T10:28:45;101136.28;;;14.56;100.00
28448;BME280;15675;52.870;-1.416;2023-05-08T10:31:16;101131.88;;;14.72;100.00
28448;BME280;15675;52.870;-1.416;2023-05-08T10:33:44;101131.75;;;14.88;100.00
28448;BME280;15675;52.870;-1.416;2023-05-08T10:36:11;101139.66;;;14.81;100.00
28448;BME280;15675;52.870;-1.416;2023-05-08T10:38:38;101137.88;;;14.87;100.00
28448;BME280;15675;52.870;-1.416;2023-05-08T10:41:06;101131.19;;;14.36;100.00
28448;BME280;15675;52.870;-1.416;2023-05-08T10:43:32;101130.41;;;14.22;100.00
28448;BME280;15675;52.870;-1.416;2023-05-08T10:46:06;101136.31;;;14.55;100.00
28448;BME280;15675;52.870;-1.416;2023-05-08T10:49:15;101140.59;;;14.70;100.00
28448;BME280;15675;52.870;-1.416;2023-05-08T10:55:05;101148.38;;;14.77;100.00
28448;BME280;15675;52.870;-1.416;2023-05-08T10:57:34;101149.13;;;14.98;100.00
28448;BME280;15675;52.870;-1.416;2023-05-08T11:00:00;101146.53;;;14.92;100.00
28448;BME280;15675;52.870;-1.416;2023-05-08T11:02:26;101160.59;;;14.77;100.00
28448;BME280;15675;52.870;-1.416;2023-05-08T11:05:17;101142.28;;;14.78;100.00
28448;BME280;15675;52.870;-1.416;2023-05-08T11:07:59;101136.09;;;14.89;100.00
28448;BME280;15675;52.870;-1.416;2023-05-08T11:10:30;101132.53;;;14.99;100.00
28448;BME280;15675;52.870;-1.416;2023-05-08T11:12:57;101133.56;;;14.81;100.00
28448;BME280;15675;52.870;-1.416;2023-05-08T11:15:40;101129.88;;;15.08;100.00
28448;BME280;15675;52.870;-1.416;2023-05-08T11:18:08;101119.22;;;15.28;100.00
28448;BME280;15675;52.870;-1.416;2023-05-08T11:20:40;101118.63;;;14.97;100.00
28448;BME280;15675;52.870;-1.416;2023-05-08T11:23:25;101109.78;;;15.15;100.00
28448;BME280;15675;52.870;-1.416;2023-05-08T11:26:11;101112.81;;;15.57;100.00
28448;BME280;15675;52.870;-1.416;2023-05-08T11:28:40;101114.75;;;15.40;100.00
28448;BME280;15675;52.870;-1.416;2023-05-08T11:31:21;101110.97;;;16.38;100.00
28448;BME280;15675;52.870;-1.416;2023-05-08T11:33:47;101102.16;;;15.74;100.00
28448;BME280;15675;52.870;-1.416;2023-05-08T11:36:17;101104.78;;;15.74;100.00
28448;BME280;15675;52.870;-1.416;2023-05-08T11:39:06;101104.81;;;15.73;100.00
28448;BME280;15675;52.870;-1.416;2023-05-08T11:41:33;101101.34;;;15.69;100.00
28448;BME280;15675;52.870;-1.416;2023-05-08T11:44:18;101110.16;;;15.60;100.00
28448;BME280;15675;52.870;-1.416;2023-05-08T11:46:50;101104.63;;;15.91;100.00
28448;BME280;15675;52.870;-1.416;2023-05-08T11:49:18;101101.88;;;16.02;100.00
28448;BME280;15675;52.870;-1.416;2023-05-08T11:51:45;101097.47;;;15.22;100.00
28448;BME280;15675;52.870;-1.416;2023-05-08T11:54:15;101092.91;;;15.44;100.00
28448;BME280;15675;52.870;-1.416;2023-05-08T11:56:42;101088.41;;;15.57;100.00
28448;BME280;15675;52.870;-1.416;2023-05-08T11:59:09;101085.53;;;15.81;100.00
28448;BME280;15675;52.870;-1.416;2023-05-08T12:01:35;101101.59;;;16.24;100.00
28448;BME280;15675;52.870;-1.416;2023-05-08T12:04:04;101092.31;;;15.98;100.00
28448;BME280;15675;52.870;-1.416;2023-05-08T12:06:30;101086.06;;;16.08;100.00
28448;BME280;15675;52.870;-1.416;2023-05-08T12:08:57;101091.66;;;15.80;100.00
28448;BME280;15675;52.870;-1.416;2023-05-08T12:11:24;101100.03;;;16.07;100.00
28448;BME280;15675;52.870;-1.416;2023-05-08T12:13:52;101090.03;;;16.37;100.00
28448;BME280;15675;52.870;-1.416;2023-05-08T12:16:18;101088.00;;;15.94;100.00
28448;BME280;15675;52.870;-1.416;2023-05-08T12:18:49;101084.72;;;15.76;100.00
28448;BME280;15675;52.870;-1.416;2023-05-08T12:21:15;101087.31;;;15.78;100.00
28448;BME280;15675;52.870;-1.416;2023-05-08T12:23:41;101085.94;;;16.17;100.00
28448;BME280;15675;52.870;-1.416;2023-05-08T12:26:07;101089.84;;;15.85;100.00
28448;BME280;15675;52.870;-1.416;2023-05-08T12:28:33;101088.06;;;15.89;100.00
28448;BME280;15675;52.870;-1.416;2023-05-08T12:31:00;101089.59;;;16.05;100.00
28448;BME280;15675;52.870;-1.416;2023-05-08T12:33:26;101082.03;;;15.82;100.00
28448;BME280;15675;52.870;-1.416;2023-05-08T12:35:55;101076.66;;;15.93;100.00
28448;BME280;15675;52.870;-1.416;2023-05-08T12:38:25;101070.13;;;16.25;100.00
28448;BME280;15675;52.870;-1.416;2023-05-08T12:40:51;101066.81;;;16.12;100.00
28448;BME280;15675;52.870;-1.416;2023-05-08T12:43:17;101060.88;;;15.99;100.00
28448;BME280;15675;52.870;-1.416;2023-05-08T12:45:43;101056.91;;;15.64;100.00
28448;BME280;15675;52.870;-1.416;2023-05-08T12:48:11;101047.00;;;15.93;100.00